TimeEDT,TemperatureF,Dew PointF,Humidity,Sea Level PressureIn,VisibilityMPH,Wind Direction,Wind SpeedMPH,Gust SpeedMPH,PrecipitationIn,Events,Conditions,WindDirDegrees,DateUTC
12:53 AM,48.0,44.1,86,30.31,10.0,Calm,Calm,-,N/A,,Clear,0,2013-05-03 04:53:00
1:53 AM,48.0,44.1,86,30.28,10.0,Calm,Calm,-,N/A,,Clear,0,2013-05-03 05:53:00
2:53 AM,46.0,44.1,93,30.27,10.0,Calm,Calm,-,N/A,,Clear,0,2013-05-03 06:53:00
3:53 AM,46.0,44.1,93,30.27,10.0,Calm,Calm,-,N/A,,Clear,0,2013-05-03 07:53:00
4:53 AM,44.1,42.1,93,30.27,10.0,Calm,Calm,-,N/A,,Clear,0,2013-05-03 08:53:00
5:53 AM,42.1,39.9,92,30.29,9.0,Calm,Calm,-,N/A,,Clear,0,2013-05-03 09:53:00
6:53 AM,46.9,45.0,93,30.32,9.0,NE,8.1,-,N/A,,Partly Cloudy,50,2013-05-03 10:53:00
7:38 AM,48.2,46.4,93,30.34,10.0,NE,4.6,-,N/A,,Mostly Cloudy,40,2013-05-03 11:38:00
7:53 AM,48.9,46.0,90,30.34,10.0,NNE,5.8,-,N/A,,Overcast,30,2013-05-03 11:53:00
8:03 AM,50.0,46.4,87,30.35,10.0,NNE,4.6,-,N/A,,Mostly Cloudy,20,2013-05-03 12:03:00
8:47 AM,51.8,48.2,88,30.36,6.0,ENE,8.1,-,N/A,,Overcast,70,2013-05-03 12:47:00
8:53 AM,52.0,48.0,86,30.36,6.0,ENE,8.1,-,N/A,,Overcast,60,2013-05-03 12:53:00
9:08 AM,51.8,48.2,88,30.36,6.0,NNE,8.1,-,N/A,,Overcast,30,2013-05-03 13:08:00
9:29 AM,53.6,48.2,82,30.36,6.0,NE,8.1,-,N/A,,Haze,50,2013-05-03 13:29:00
9:53 AM,55.0,48.0,77,30.36,7.0,NE,9.2,-,N/A,,Overcast,50,2013-05-03 13:53:00
10:48 AM,55.4,48.2,77,30.37,7.0,NE,8.1,-,N/A,,Overcast,50,2013-05-03 14:48:00
10:53 AM,55.9,48.0,75,30.36,7.0,NNE,5.8,-,N/A,,Overcast,30,2013-05-03 14:53:00
11:33 AM,59.0,46.4,63,30.36,7.0,ENE,4.6,-,N/A,,Mostly Cloudy,60,2013-05-03 15:33:00
11:53 AM,61.0,48.9,64,30.35,7.0,Variable,4.6,-,N/A,,Overcast,0,2013-05-03 15:53:00
12:01 PM,60.8,46.4,59,30.35,10.0,East,5.8,-,N/A,,Overcast,80,2013-05-03 16:01:00
12:28 PM,62.6,46.4,55,30.35,10.0,ENE,10.4,-,N/A,,Overcast,70,2013-05-03 16:28:00
12:53 PM,62.1,48.0,60,30.33,10.0,Variable,4.6,-,N/A,,Overcast,0,2013-05-03 16:53:00
1:53 PM,64.0,46.9,54,30.31,10.0,ENE,9.2,-,N/A,,Overcast,60,2013-05-03 17:53:00
2:53 PM,64.9,46.0,50,30.29,10.0,ENE,6.9,-,N/A,,Mostly Cloudy,70,2013-05-03 18:53:00
3:53 PM,66.0,45.0,47,30.26,10.0,ENE,5.8,-,N/A,,Mostly Cloudy,70,2013-05-03 19:53:00
4:53 PM,69.1,39.9,35,30.24,10.0,ESE,6.9,16.1,N/A,,Partly Cloudy,110,2013-05-03 20:53:00
5:53 PM,68.0,41.0,37,30.24,10.0,East,10.4,-,N/A,,Clear,80,2013-05-03 21:53:00
6:53 PM,64.0,39.9,41,30.25,10.0,East,9.2,-,N/A,,Clear,90,2013-05-03 22:53:00
7:53 PM,60.1,39.9,47,30.27,10.0,East,8.1,-,N/A,,Clear,90,2013-05-03 23:53:00
8:53 PM,55.9,37.0,49,30.29,10.0,East,5.8,-,N/A,,Clear,90,2013-05-04 00:53:00
9:53 PM,53.1,39.9,61,30.31,10.0,East,5.8,-,N/A,,Clear,100,2013-05-04 01:53:00
10:53 PM,50.0,39.0,66,30.32,10.0,ENE,3.5,-,N/A,,Clear,70,2013-05-04 02:53:00
11:53 PM,46.9,39.9,77,30.31,10.0,NNE,3.5,-,N/A,,Clear,20,2013-05-04 03:53:00